Terminal Aerodrome Forecast
Issued by NWS Boise, ID

Home | Current Version | Previous Version | Text Only | Print | Product List | Glossary On
Versions: 1 2 3 4 5 6 7 8 9 10 11 12 13 14 15 16 17 18 19 20 21 22 23 24 25 26 27 28 29 30 31 32 33
000
FTUS45 KBOI 192204 AAB
TAFBOI
TAF AMD
KBOI 192204Z 1922/2018 30011KT P6SM -SHRA SCT015 BKN035
     FM200100 14006KT P6SM SCT030 BKN050
     FM201200 13015G20KT P6SM -SHRA OVC050=

USA.gov is the U.S. government's official web portal to all federal, state and local government web resources and services.